• Join FlightAware (Why Join?)
  • Login
  • US Flag 
05:59AM EDT


 

Airport Tracker/Info


-or-


 

Live Flight TrackerFlight Track Log ✈ N885FT ✈ 06-May-2014 ✈ KMIA - KMLB

Flight Track Log - Related Links

Times and Time Zones

All times are in EDT time to prevent confusion due to time zone crossing. See the N885FT flight status page for this flight to view local times or setup timezone preferences in your user account.

Time Position Orientation Groundspeed Altitude Reporting Facility
EDT Latitude Longitude Course Direction KTS MPH feet Rate Location/Type
10:34PM 25.9281 -80.5483 347° North 146 168 2,900  Level Miami Center
10:35PM 25.9556 -80.5508 355° North 146 168 3,000 240 Climbing Miami Center
10:35PM 25.9675 -80.5517 356° North 145 167 3,200 480 Climbing Miami Center
10:36PM 25.9953 -80.5531 357° North 145 167 3,500 480 Climbing Miami Center
10:37PM 26.0344 -80.5558 356° North 140 161 4,000 480 Climbing Miami Center
10:37PM 26.0492 -80.5533 North 141 162 4,200 480 Climbing Miami Center
10:38PM 26.0725 -80.5528 North 139 160 4,500 420 Climbing Miami Center
10:39PM 26.0146 -80.3162 347° North  Level FlightAware Approximate
10:39PM 26.1122 -80.5569 355° North 140 161 5,000  Level Miami Center
10:40PM 26.1519 -80.5603 356° North 141 162 5,400 240 Climbing Miami Center
10:41PM 26.1950 -80.5622 358° North 149 171 5,500  Climbing Miami Center
10:42PM 26.2394 -80.5628 359° North 155 178 5,500  Level Miami Center
10:43PM 26.2869 -80.5650 358° North 157 181 5,500  Level Miami Center
10:44PM 26.3311 -80.5661 359° North 158 182 5,500  Level Miami Center
10:45PM 26.3758 -80.5686 357° North 159 183 5,500  Level Miami Center
10:46PM 26.4206 -80.5708 357° North 160 184 5,500  Level Miami Center
10:47PM 26.4656 -80.5733 357° North 160 184 5,500  Level Miami Center
10:48PM 26.5100 -80.5761 357° North 160 184 5,500  Level Miami Center
10:49PM 26.5547 -80.5778 358° North 160 184 5,500  Level Miami Center
10:50PM 26.6003 -80.5808 357° North 152 175 5,500  Level Miami Center
10:51PM 26.6414 -80.5814 359° North 149 171 5,500  Level Miami Center
10:52PM 26.6811 -80.5847 356° North 146 168 5,500  Level Miami Center
10:53PM 26.7217 -80.5856 359° North 145 167 5,500  Level Miami Center
10:54PM 26.7622 -80.5878 357° North 146 168 5,500  Level Miami Center
10:55PM 26.8028 -80.5883 359° North 145 167 5,500  Level Miami Center
10:56PM 26.8450 -80.5906 357° North 145 167 5,500  Level Miami Center
10:57PM 26.8836 -80.5922 358° North 144 166 5,500  Level Miami Center
10:58PM 26.9253 -80.5931 359° North 144 166 5,500  Level Miami Center
10:59PM 26.9639 -80.5958 356° North 143 165 5,500  Level Miami Center
11:00PM 27.0058 -80.5972 358° North 144 166 5,500  Level Miami Center
11:01PM 27.0447 -80.5994 357° North 144 166 5,500  Level Miami Center
11:02PM 27.0867 -80.6014 358° North 145 167 5,500  Level Miami Center
11:03PM 27.1253 -80.6042 356° North 144 166 5,500  Level Miami Center
11:04PM 27.1675 -80.6058 358° North 145 167 5,500  Level Miami Center
11:05PM 27.2092 -80.6075 358° North 144 166 5,500  Level Miami Center
11:06PM 27.2478 -80.6092 358° North 144 166 5,500  Level Miami Center
11:07PM 27.2894 -80.6114 357° North 144 166 5,500  Level Miami Center
11:08PM 27.3283 -80.6131 358° North 144 166 5,500  Level Miami Center
11:09PM 27.3711 -80.6158 357° North 145 167 5,500  Level Miami Center
11:10PM 27.4117 -80.6172 358° North 144 166 5,500  Level Miami Center
11:11PM 27.4506 -80.6186 358° North 144 166 5,500  Level Miami Center
11:12PM 27.4928 -80.6214 357° North 144 166 5,500  Level Miami Center
11:13PM 27.5311 -80.6233 357° North 144 166 5,500  Level Miami Center
11:14PM 27.5731 -80.6247 358° North 144 166 5,500  Level Miami Center
11:15PM 27.6150 -80.6253 359° North 144 166 5,500  Level Miami Center
11:16PM 27.6536 -80.6261 359° North 144 166 5,500  Level Miami Center
11:17PM 27.6956 -80.6292 356° North 144 166 5,500  Level Miami Center